North Manheim, Pennsylvania
Current Conditions -  °F | °C
As of 6:58 PM on Monday 24 Nov 2014 (Local Time) from KMUI Reporting Station
Clear Clear  
Wind Chill: 12°   Ceiling: Unl
Heat Index: 12°   Visibility: 10mi
Dew Point: 11°   Wind: 2mph
Humidity: 89%   Direction: 40°NE
Pressure: 29.64"   Gusts: NA
Location:  40.6882°N, 76.264°W
Report Text: KMUI 242358Z AUTO 04002KT 10SM CLR 12/11 A2964 RMK AO2 SLP039 T01240107 10209 20118 52021 $
Loading
Personal Weather Stations






























Interactive Weather Map New forecast layout! Learn more

10-Day Weather Forecast

Advertisements
Track Severe Weather on mobile